sensor_id;sensor_type;location;lat;lon;timestamp;temperature;humidity
28524;DHT22;15734;50.904;6.922;2023-04-01T00:00:04;11.10;99.90
28524;DHT22;15734;50.904;6.922;2023-04-01T00:02:30;11.10;99.90
28524;DHT22;15734;50.904;6.922;2023-04-01T00:04:56;11.10;99.90
28524;DHT22;15734;50.904;6.922;2023-04-01T00:07:21;11.10;99.90
28524;DHT22;15734;50.904;6.922;2023-04-01T00:09:47;11.10;99.90
28524;DHT22;15734;50.904;6.922;2023-04-01T00:12:13;11.10;99.90
28524;DHT22;15734;50.904;6.922;2023-04-01T00:14:38;11.10;99.90
28524;DHT22;15734;50.904;6.922;2023-04-01T00:17:05;11.20;99.90
28524;DHT22;15734;50.904;6.922;2023-04-01T00:19:30;11.10;99.90
28524;DHT22;15734;50.904;6.922;2023-04-01T00:21:57;11.10;99.90
28524;DHT22;15734;50.904;6.922;2023-04-01T00:24:24;11.20;99.90
28524;DHT22;15734;50.904;6.922;2023-04-01T00:26:50;11.20;99.90
28524;DHT22;15734;50.904;6.922;2023-04-01T00:29:15;11.20;99.90
28524;DHT22;15734;50.904;6.922;2023-04-01T00:31:41;11.20;99.90
28524;DHT22;15734;50.904;6.922;2023-04-01T00:34:06;11.20;99.90
28524;DHT22;15734;50.904;6.922;2023-04-01T00:36:32;11.20;99.90
28524;DHT22;15734;50.904;6.922;2023-04-01T00:38:57;11.20;99.90
28524;DHT22;15734;50.904;6.922;2023-04-01T00:41:24;11.20;99.90
28524;DHT22;15734;50.904;6.922;2023-04-01T00:43:51;11.20;99.90
28524;DHT22;15734;50.904;6.922;2023-04-01T00:46:17;11.10;99.90
28524;DHT22;15734;50.904;6.922;2023-04-01T00:48:44;11.10;99.90
28524;DHT22;15734;50.904;6.922;2023-04-01T00:51:14;11.10;99.90
28524;DHT22;15734;50.904;6.922;2023-04-01T00:53:45;11.10;99.90
28524;DHT22;15734;50.904;6.922;2023-04-01T00:58:47;11.10;99.90
28524;DHT22;15734;50.904;6.922;2023-04-01T01:01:14;11.10;99.90
28524;DHT22;15734;50.904;6.922;2023-04-01T01:03:40;11.10;99.90
28524;DHT22;15734;50.904;6.922;2023-04-01T01:11:02;11.10;99.90
28524;DHT22;15734;50.904;6.922;2023-04-01T01:13:37;11.10;99.90
28524;DHT22;15734;50.904;6.922;2023-04-01T01:16:11;11.20;99.90
28524;DHT22;15734;50.904;6.922;2023-04-01T01:18:42;11.10;99.90
28524;DHT22;15734;50.904;6.922;2023-04-01T01:27:20;11.20;99.90
28524;DHT22;15734;50.904;6.922;2023-04-01T01:36:45;11.20;99.90
28524;DHT22;15734;50.904;6.922;2023-04-01T01:39:13;11.20;99.90
28524;DHT22;15734;50.904;6.922;2023-04-01T01:41:40;11.20;99.90
28524;DHT22;15734;50.904;6.922;2023-04-01T01:44:07;11.20;99.90
28524;DHT22;15734;50.904;6.922;2023-04-01T01:46:33;11.20;99.90
28524;DHT22;15734;50.904;6.922;2023-04-01T01:48:59;11.20;99.90
28524;DHT22;15734;50.904;6.922;2023-04-01T01:51:25;11.10;99.90
28524;DHT22;15734;50.904;6.922;2023-04-01T01:53:52;11.00;99.90
28524;DHT22;15734;50.904;6.922;2023-04-01T01:56:18;11.10;99.90
28524;DHT22;15734;50.904;6.922;2023-04-01T01:58:45;11.10;99.90
28524;DHT22;15734;50.904;6.922;2023-04-01T02:01:17;11.00;99.90
28524;DHT22;15734;50.904;6.922;2023-04-01T02:03:44;11.00;99.90
28524;DHT22;15734;50.904;6.922;2023-04-01T02:06:11;10.90;99.90
28524;DHT22;15734;50.904;6.922;2023-04-01T02:08:45;10.90;99.90
28524;DHT22;15734;50.904;6.922;2023-04-01T02:11:12;10.80;99.90
28524;DHT22;15734;50.904;6.922;2023-04-01T02:16:05;10.70;99.90
28524;DHT22;15734;50.904;6.922;2023-04-01T02:18:33;10.60;99.90
28524;DHT22;15734;50.904;6.922;2023-04-01T02:21:00;10.60;99.90
28524;DHT22;15734;50.904;6.922;2023-04-01T02:23:26;10.50;99.90
28524;DHT22;15734;50.904;6.922;2023-04-01T02:25:52;10.40;99.90
28524;DHT22;15734;50.904;6.922;2023-04-01T02:28:18;10.40;99.90
28524;DHT22;15734;50.904;6.922;2023-04-01T02:30:45;10.40;99.90
28524;DHT22;15734;50.904;6.922;2023-04-01T02:33:12;10.40;99.90
28524;DHT22;15734;50.904;6.922;2023-04-01T02:35:37;10.30;99.90
28524;DHT22;15734;50.904;6.922;2023-04-01T02:38:03;10.30;99.90
28524;DHT22;15734;50.904;6.922;2023-04-01T02:40:28;10.20;99.90
28524;DHT22;15734;50.904;6.922;2023-04-01T02:42:54;10.20;99.90
28524;DHT22;15734;50.904;6.922;2023-04-01T02:45:19;10.20;99.90
28524;DHT22;15734;50.904;6.922;2023-04-01T02:47:45;10.20;99.90
28524;DHT22;15734;50.904;6.922;2023-04-01T02:50:10;10.10;99.90
28524;DHT22;15734;50.904;6.922;2023-04-01T02:52:36;10.10;99.90
28524;DHT22;15734;50.904;6.922;2023-04-01T02:55:02;10.10;99.90
28524;DHT22;15734;50.904;6.922;2023-04-01T02:57:27;10.10;99.90
28524;DHT22;15734;50.904;6.922;2023-04-01T02:59:54;10.00;99.90
28524;DHT22;15734;50.904;6.922;2023-04-01T03:02:19;10.10;99.90
28524;DHT22;15734;50.904;6.922;2023-04-01T03:04:45;10.10;99.90
28524;DHT22;15734;50.904;6.922;2023-04-01T03:07:11;10.00;99.90
28524;DHT22;15734;50.904;6.922;2023-04-01T03:09:37;10.10;99.90
28524;DHT22;15734;50.904;6.922;2023-04-01T03:12:02;10.10;99.90
28524;DHT22;15734;50.904;6.922;2023-04-01T03:14:28;10.10;99.90
28524;DHT22;15734;50.904;6.922;2023-04-01T03:16:54;10.00;99.90
28524;DHT22;15734;50.904;6.922;2023-04-01T03:19:20;10.00;99.90
28524;DHT22;15734;50.904;6.922;2023-04-01T03:21:45;10.10;99.90
28524;DHT22;15734;50.904;6.922;2023-04-01T03:24:10;10.10;99.90
28524;DHT22;15734;50.904;6.922;2023-04-01T03:26:36;10.10;99.90
28524;DHT22;15734;50.904;6.922;2023-04-01T03:29:01;10.10;99.90
28524;DHT22;15734;50.904;6.922;2023-04-01T03:31:27;10.10;99.90
28524;DHT22;15734;50.904;6.922;2023-04-01T03:33:52;10.20;99.90
28524;DHT22;15734;50.904;6.922;2023-04-01T03:36:18;10.10;99.90
28524;DHT22;15734;50.904;6.922;2023-04-01T03:38:44;10.10;99.90
28524;DHT22;15734;50.904;6.922;2023-04-01T03:41:16;10.20;99.90
28524;DHT22;15734;50.904;6.922;2023-04-01T03:43:42;10.10;99.90
28524;DHT22;15734;50.904;6.922;2023-04-01T03:46:07;10.10;99.90
28524;DHT22;15734;50.904;6.922;2023-04-01T03:48:33;10.10;99.90
28524;DHT22;15734;50.904;6.922;2023-04-01T03:50:58;10.20;99.90
28524;DHT22;15734;50.904;6.922;2023-04-01T03:53:24;10.20;99.90
28524;DHT22;15734;50.904;6.922;2023-04-01T03:55:49;10.20;99.90
28524;DHT22;15734;50.904;6.922;2023-04-01T03:58:16;10.20;99.90
28524;DHT22;15734;50.904;6.922;2023-04-01T04:00:42;10.20;99.90
28524;DHT22;15734;50.904;6.922;2023-04-01T04:03:07;10.30;99.90
28524;DHT22;15734;50.904;6.922;2023-04-01T04:05:32;10.30;99.90
28524;DHT22;15734;50.904;6.922;2023-04-01T04:07:58;10.30;99.90
28524;DHT22;15734;50.904;6.922;2023-04-01T04:10:23;10.30;99.90
28524;DHT22;15734;50.904;6.922;2023-04-01T04:12:50;10.30;99.90
28524;DHT22;15734;50.904;6.922;2023-04-01T04:15:15;10.30;99.90
28524;DHT22;15734;50.904;6.922;2023-04-01T04:17:41;10.40;99.90
28524;DHT22;15734;50.904;6.922;2023-04-01T04:20:06;10.30;99.90
28524;DHT22;15734;50.904;6.922;2023-04-01T04:22:33;10.40;99.90
28524;DHT22;15734;50.904;6.922;2023-04-01T04:24:58;10.40;99.90
28524;DHT22;15734;50.904;6.922;2023-04-01T04:27:23;10.40;99.90
28524;DHT22;15734;50.904;6.922;2023-04-01T04:29:49;10.50;99.90
28524;DHT22;15734;50.904;6.922;2023-04-01T04:32:14;10.40;99.90
28524;DHT22;15734;50.904;6.922;2023-04-01T04:34:40;10.40;99.90
28524;DHT22;15734;50.904;6.922;2023-04-01T04:37:05;10.40;99.90
28524;DHT22;15734;50.904;6.922;2023-04-01T04:39:31;10.40;99.90
28524;DHT22;15734;50.904;6.922;2023-04-01T04:41:56;10.30;99.90
28524;DHT22;15734;50.904;6.922;2023-04-01T04:44:22;10.30;99.90
28524;DHT22;15734;50.904;6.922;2023-04-01T04:46:47;10.30;99.90
28524;DHT22;15734;50.904;6.922;2023-04-01T04:49:13;10.30;99.90
28524;DHT22;15734;50.904;6.922;2023-04-01T04:51:38;10.20;99.90
28524;DHT22;15734;50.904;6.922;2023-04-01T04:54:04;10.20;99.90
28524;DHT22;15734;50.904;6.922;2023-04-01T04:56:30;10.20;99.90
28524;DHT22;15734;50.904;6.922;2023-04-01T04:58:56;10.20;99.90
28524;DHT22;15734;50.904;6.922;2023-04-01T05:01:21;10.20;99.90
28524;DHT22;15734;50.904;6.922;2023-04-01T05:03:47;10.20;99.90
28524;DHT22;15734;50.904;6.922;2023-04-01T05:06:13;10.20;99.90
28524;DHT22;15734;50.904;6.922;2023-04-01T05:08:39;10.20;99.90
28524;DHT22;15734;50.904;6.922;2023-04-01T05:11:09;10.10;99.90
28524;DHT22;15734;50.904;6.922;2023-04-01T05:13:35;10.10;99.90
28524;DHT22;15734;50.904;6.922;2023-04-01T05:16:01;10.20;99.90
28524;DHT22;15734;50.904;6.922;2023-04-01T05:18:26;10.20;99.90
28524;DHT22;15734;50.904;6.922;2023-04-01T05:20:52;10.20;99.90
28524;DHT22;15734;50.904;6.922;2023-04-01T05:23:19;10.20;99.90
28524;DHT22;15734;50.904;6.922;2023-04-01T05:25:46;10.20;99.90
28524;DHT22;15734;50.904;6.922;2023-04-01T05:28:12;10.30;99.90
28524;DHT22;15734;50.904;6.922;2023-04-01T05:30:39;10.20;99.90
28524;DHT22;15734;50.904;6.922;2023-04-01T05:33:05;10.20;99.90
28524;DHT22;15734;50.904;6.922;2023-04-01T05:35:31;10.20;99.90
28524;DHT22;15734;50.904;6.922;2023-04-01T05:37:56;10.20;99.90
28524;DHT22;15734;50.904;6.922;2023-04-01T05:40:22;10.20;99.90
28524;DHT22;15734;50.904;6.922;2023-04-01T05:42:47;10.20;99.90
28524;DHT22;15734;50.904;6.922;2023-04-01T05:45:13;10.20;99.90
28524;DHT22;15734;50.904;6.922;2023-04-01T05:47:40;10.20;99.90
28524;DHT22;15734;50.904;6.922;2023-04-01T05:50:08;10.20;99.90
28524;DHT22;15734;50.904;6.922;2023-04-01T05:52:33;10.20;99.90
28524;DHT22;15734;50.904;6.922;2023-04-01T05:54:59;10.10;99.90
28524;DHT22;15734;50.904;6.922;2023-04-01T05:57:25;10.20;99.90
28524;DHT22;15734;50.904;6.922;2023-04-01T05:59:51;10.30;99.90
28524;DHT22;15734;50.904;6.922;2023-04-01T06:02:16;10.30;99.90
28524;DHT22;15734;50.904;6.922;2023-04-01T06:04:42;10.20;99.90
28524;DHT22;15734;50.904;6.922;2023-04-01T06:07:14;10.10;99.90
28524;DHT22;15734;50.904;6.922;2023-04-01T06:09:40;10.10;99.90
28524;DHT22;15734;50.904;6.922;2023-04-01T06:12:18;10.10;99.90
28524;DHT22;15734;50.904;6.922;2023-04-01T06:20:02;10.20;99.90
28524;DHT22;15734;50.904;6.922;2023-04-01T06:25:13;10.20;99.90
28524;DHT22;15734;50.904;6.922;2023-04-01T06:35:50;10.20;99.90
28524;DHT22;15734;50.904;6.922;2023-04-01T06:38:37;10.30;99.90
28524;DHT22;15734;50.904;6.922;2023-04-01T06:49:07;10.30;99.90
28524;DHT22;15734;50.904;6.922;2023-04-01T06:51:44;10.30;99.90
28524;DHT22;15734;50.904;6.922;2023-04-01T06:54:24;10.30;99.90
28524;DHT22;15734;50.904;6.922;2023-04-01T06:56:53;10.40;99.90
28524;DHT22;15734;50.904;6.922;2023-04-01T06:59:25;10.40;99.90
28524;DHT22;15734;50.904;6.922;2023-04-01T07:01:52;10.40;99.90
28524;DHT22;15734;50.904;6.922;2023-04-01T07:04:31;10.40;99.90
28524;DHT22;15734;50.904;6.922;2023-04-01T07:06:58;10.40;99.90
28524;DHT22;15734;50.904;6.922;2023-04-01T07:09:34;10.40;99.90
28524;DHT22;15734;50.904;6.922;2023-04-01T07:12:04;10.40;99.90
28524;DHT22;15734;50.904;6.922;2023-04-01T07:14:37;10.40;99.90
28524;DHT22;15734;50.904;6.922;2023-04-01T07:17:12;10.40;99.90
28524;DHT22;15734;50.904;6.922;2023-04-01T07:25:13;10.40;99.90
28524;DHT22;15734;50.904;6.922;2023-04-01T07:27:41;10.40;99.90
28524;DHT22;15734;50.904;6.922;2023-04-01T07:30:14;10.40;99.90
28524;DHT22;15734;50.904;6.922;2023-04-01T07:32:47;10.40;99.90
28524;DHT22;15734;50.904;6.922;2023-04-01T07:48:00;10.40;99.90
28524;DHT22;15734;50.904;6.922;2023-04-01T07:50:31;10.40;99.90
28524;DHT22;15734;50.904;6.922;2023-04-01T07:55:24;10.40;99.90
28524;DHT22;15734;50.904;6.922;2023-04-01T08:08:13;10.50;99.90
28524;DHT22;15734;50.904;6.922;2023-04-01T08:13:18;10.50;99.90
28524;DHT22;15734;50.904;6.922;2023-04-01T08:16:06;10.40;99.90
28524;DHT22;15734;50.904;6.922;2023-04-01T08:21:14;10.50;99.90
28524;DHT22;15734;50.904;6.922;2023-04-01T08:23:41;10.50;99.90
28524;DHT22;15734;50.904;6.922;2023-04-01T08:28:57;10.40;99.90
28524;DHT22;15734;50.904;6.922;2023-04-01T08:31:26;10.40;99.90
28524;DHT22;15734;50.904;6.922;2023-04-01T08:33:55;10.50;99.90
28524;DHT22;15734;50.904;6.922;2023-04-01T08:38:48;10.50;99.90
28524;DHT22;15734;50.904;6.922;2023-04-01T08:48:42;10.60;99.90
28524;DHT22;15734;50.904;6.922;2023-04-01T09:17:21;10.50;99.90
28524;DHT22;15734;50.904;6.922;2023-04-01T09:25:13;10.50;99.90
28524;DHT22;15734;50.904;6.922;2023-04-01T09:37:35;10.60;99.90
28524;DHT22;15734;50.904;6.922;2023-04-01T09:40:17;10.70;99.90
28524;DHT22;15734;50.904;6.922;2023-04-01T09:50:27;10.70;99.90
28524;DHT22;15734;50.904;6.922;2023-04-01T10:01:16;10.80;99.90
28524;DHT22;15734;50.904;6.922;2023-04-01T10:04:04;10.80;99.90
28524;DHT22;15734;50.904;6.922;2023-04-01T10:09:08;10.80;99.90
28524;DHT22;15734;50.904;6.922;2023-04-01T10:24:48;10.90;99.90
28524;DHT22;15734;50.904;6.922;2023-04-01T10:27:16;10.90;99.90
28524;DHT22;15734;50.904;6.922;2023-04-01T10:38:00;10.80;99.90
28524;DHT22;15734;50.904;6.922;2023-04-01T10:43:35;10.80;99.90
28524;DHT22;15734;50.904;6.922;2023-04-01T10:56:54;10.90;99.90
28524;DHT22;15734;50.904;6.922;2023-04-01T10:59:28;11.00;99.90
28524;DHT22;15734;50.904;6.922;2023-04-01T11:12:04;11.00;99.90
28524;DHT22;15734;50.904;6.922;2023-04-01T11:17:05;11.00;99.90
28524;DHT22;15734;50.904;6.922;2023-04-01T11:24:51;11.30;99.90
28524;DHT22;15734;50.904;6.922;2023-04-01T11:45:58;11.50;99.90
28524;DHT22;15734;50.904;6.922;2023-04-01T11:53:42;11.60;99.90
28524;DHT22;15734;50.904;6.922;2023-04-01T11:58:56;11.50;99.90
28524;DHT22;15734;50.904;6.922;2023-04-01T12:06:42;11.60;99.90
28524;DHT22;15734;50.904;6.922;2023-04-01T12:11:39;11.90;99.90
28524;DHT22;15734;50.904;6.922;2023-04-01T12:19:21;11.90;99.90
28524;DHT22;15734;50.904;6.922;2023-04-01T12:21:52;11.80;99.90
28524;DHT22;15734;50.904;6.922;2023-04-01T12:24:29;11.90;99.90
28524;DHT22;15734;50.904;6.922;2023-04-01T12:30:05;11.90;99.90
28524;DHT22;15734;50.904;6.922;2023-04-01T12:32:36;11.90;99.90
28524;DHT22;15734;50.904;6.922;2023-04-01T12:37:40;11.80;99.90
28524;DHT22;15734;50.904;6.922;2023-04-01T12:40:31;11.90;99.90
28524;DHT22;15734;50.904;6.922;2023-04-01T12:51:15;12.10;99.90
28524;DHT22;15734;50.904;6.922;2023-04-01T12:56:43;12.00;99.90
28524;DHT22;15734;50.904;6.922;2023-04-01T13:01:59;12.00;99.90
28524;DHT22;15734;50.904;6.922;2023-04-01T13:04:37;12.10;99.90
28524;DHT22;15734;50.904;6.922;2023-04-01T13:07:10;12.00;99.90
28524;DHT22;15734;50.904;6.922;2023-04-01T13:09:51;12.10;99.90
28524;DHT22;15734;50.904;6.922;2023-04-01T13:21:02;12.00;99.90
28524;DHT22;15734;50.904;6.922;2023-04-01T13:23:10;12.10;99.90
28524;DHT22;15734;50.904;6.922;2023-04-01T13:25:49;12.00;99.90
28524;DHT22;15734;50.904;6.922;2023-04-01T13:28:22;12.00;99.90
28524;DHT22;15734;50.904;6.922;2023-04-01T13:30:58;12.10;99.90
28524;DHT22;15734;50.904;6.922;2023-04-01T13:41:09;12.00;99.90
28524;DHT22;15734;50.904;6.922;2023-04-01T13:43:41;12.00;99.90
28524;DHT22;15734;50.904;6.922;2023-04-01T13:53:59;12.20;99.90
28524;DHT22;15734;50.904;6.922;2023-04-01T14:01:48;12.00;99.90
28524;DHT22;15734;50.904;6.922;2023-04-01T14:04:33;12.00;99.90
28524;DHT22;15734;50.904;6.922;2023-04-01T14:07:13;12.00;99.90
28524;DHT22;15734;50.904;6.922;2023-04-01T14:09:44;11.80;99.90
28524;DHT22;15734;50.904;6.922;2023-04-01T14:30:32;11.80;99.90
28524;DHT22;15734;50.904;6.922;2023-04-01T14:33:12;11.90;99.90
28524;DHT22;15734;50.904;6.922;2023-04-01T14:35:46;11.80;99.90
28524;DHT22;15734;50.904;6.922;2023-04-01T14:41:06;11.90;99.90
28524;DHT22;15734;50.904;6.922;2023-04-01T14:46:34;11.80;99.90
28524;DHT22;15734;50.904;6.922;2023-04-01T14:51:43;11.60;99.90
28524;DHT22;15734;50.904;6.922;2023-04-01T14:56:34;11.50;99.90
28524;DHT22;15734;50.904;6.922;2023-04-01T14:59:00;11.60;99.90
28524;DHT22;15734;50.904;6.922;2023-04-01T15:04:08;11.70;99.90
28524;DHT22;15734;50.904;6.922;2023-04-01T15:24:52;11.60;99.90
28524;DHT22;15734;50.904;6.922;2023-04-01T15:37:37;11.70;99.90
28524;DHT22;15734;50.904;6.922;2023-04-01T15:45:13;11.60;99.90
28524;DHT22;15734;50.904;6.922;2023-04-01T15:47:45;11.50;99.90
28524;DHT22;15734;50.904;6.922;2023-04-01T15:55:17;11.60;99.90
28524;DHT22;15734;50.904;6.922;2023-04-01T15:57:49;11.60;99.90
28524;DHT22;15734;50.904;6.922;2023-04-01T16:00:27;11.60;99.90
28524;DHT22;15734;50.904;6.922;2023-04-01T16:05:37;11.70;99.90
28524;DHT22;15734;50.904;6.922;2023-04-01T16:10:35;11.50;99.90
28524;DHT22;15734;50.904;6.922;2023-04-01T16:15:30;11.50;99.90
28524;DHT22;15734;50.904;6.922;2023-04-01T16:18:08;11.40;99.90
28524;DHT22;15734;50.904;6.922;2023-04-01T16:25:44;11.30;99.90
28524;DHT22;15734;50.904;6.922;2023-04-01T16:28:18;11.30;99.90
28524;DHT22;15734;50.904;6.922;2023-04-01T16:30:48;11.30;99.90
28524;DHT22;15734;50.904;6.922;2023-04-01T16:36:07;11.20;99.90
28524;DHT22;15734;50.904;6.922;2023-04-01T16:38:40;11.30;99.90
28524;DHT22;15734;50.904;6.922;2023-04-01T16:43:51;11.30;99.90
28524;DHT22;15734;50.904;6.922;2023-04-01T16:46:26;11.20;99.90
28524;DHT22;15734;50.904;6.922;2023-04-01T16:51:17;11.30;99.90
28524;DHT22;15734;50.904;6.922;2023-04-01T16:53:44;11.20;99.90
28524;DHT22;15734;50.904;6.922;2023-04-01T16:56:22;11.20;99.90
28524;DHT22;15734;50.904;6.922;2023-04-01T17:01:21;11.10;99.90
28524;DHT22;15734;50.904;6.922;2023-04-01T17:03:51;11.10;99.90
28524;DHT22;15734;50.904;6.922;2023-04-01T17:06:19;11.20;99.90
28524;DHT22;15734;50.904;6.922;2023-04-01T17:09:09;11.20;99.90
28524;DHT22;15734;50.904;6.922;2023-04-01T17:11:42;11.20;99.90
28524;DHT22;15734;50.904;6.922;2023-04-01T17:14:24;11.20;99.90
28524;DHT22;15734;50.904;6.922;2023-04-01T17:17:01;11.20;99.90
28524;DHT22;15734;50.904;6.922;2023-04-01T17:22:27;11.10;99.90
28524;DHT22;15734;50.904;6.922;2023-04-01T17:25:12;11.00;99.90
28524;DHT22;15734;50.904;6.922;2023-04-01T17:30:12;11.00;99.90
28524;DHT22;15734;50.904;6.922;2023-04-01T17:38:56;10.90;99.90
28524;DHT22;15734;50.904;6.922;2023-04-01T17:40:49;10.90;99.90
28524;DHT22;15734;50.904;6.922;2023-04-01T17:48:55;10.70;99.90
28524;DHT22;15734;50.904;6.922;2023-04-01T17:51:33;10.60;99.90
28524;DHT22;15734;50.904;6.922;2023-04-01T17:54:06;10.60;99.90
28524;DHT22;15734;50.904;6.922;2023-04-01T17:56:39;10.70;99.90
28524;DHT22;15734;50.904;6.922;2023-04-01T17:59:27;10.60;99.90
28524;DHT22;15734;50.904;6.922;2023-04-01T18:02:01;10.60;99.90
28524;DHT22;15734;50.904;6.922;2023-04-01T18:04:49;10.50;99.90
28524;DHT22;15734;50.904;6.922;2023-04-01T18:14:54;10.40;99.90
28524;DHT22;15734;50.904;6.922;2023-04-01T18:22:45;10.40;99.90
28524;DHT22;15734;50.904;6.922;2023-04-01T18:25:15;10.30;99.90
28524;DHT22;15734;50.904;6.922;2023-04-01T18:27:44;10.20;99.90
28524;DHT22;15734;50.904;6.922;2023-04-01T18:38:04;10.20;99.90
28524;DHT22;15734;50.904;6.922;2023-04-01T18:45:54;10.10;99.90
28524;DHT22;15734;50.904;6.922;2023-04-01T18:48:43;10.10;99.90
28524;DHT22;15734;50.904;6.922;2023-04-01T18:51:18;10.00;99.90
28524;DHT22;15734;50.904;6.922;2023-04-01T18:53:48;10.10;99.90
28524;DHT22;15734;50.904;6.922;2023-04-01T18:59:00;10.00;99.90
28524;DHT22;15734;50.904;6.922;2023-04-01T19:01:28;10.00;99.90
28524;DHT22;15734;50.904;6.922;2023-04-01T19:04:02;10.00;99.90
28524;DHT22;15734;50.904;6.922;2023-04-01T19:06:47;10.00;99.90
28524;DHT22;15734;50.904;6.922;2023-04-01T19:09:18;10.00;99.90
28524;DHT22;15734;50.904;6.922;2023-04-01T19:11:46;10.00;99.90
28524;DHT22;15734;50.904;6.922;2023-04-01T19:17:01;10.00;99.90
28524;DHT22;15734;50.904;6.922;2023-04-01T19:20:16;10.00;99.90
28524;DHT22;15734;50.904;6.922;2023-04-01T19:27:14;10.00;99.90
28524;DHT22;15734;50.904;6.922;2023-04-01T19:37:31;10.00;99.90
28524;DHT22;15734;50.904;6.922;2023-04-01T19:48:18;9.90;99.90
28524;DHT22;15734;50.904;6.922;2023-04-01T19:50:52;9.90;99.90
28524;DHT22;15734;50.904;6.922;2023-04-01T19:56:20;9.80;99.90
28524;DHT22;15734;50.904;6.922;2023-04-01T19:58:49;9.90;99.90
28524;DHT22;15734;50.904;6.922;2023-04-01T20:01:21;9.90;99.90
28524;DHT22;15734;50.904;6.922;2023-04-01T20:06:15;9.90;99.90
28524;DHT22;15734;50.904;6.922;2023-04-01T20:11:25;9.80;99.90
28524;DHT22;15734;50.904;6.922;2023-04-01T20:16:18;9.80;99.90
28524;DHT22;15734;50.904;6.922;2023-04-01T20:18:57;9.80;99.90
28524;DHT22;15734;50.904;6.922;2023-04-01T20:21:27;9.80;99.90
28524;DHT22;15734;50.904;6.922;2023-04-01T20:26:39;9.80;99.90
28524;DHT22;15734;50.904;6.922;2023-04-01T20:29:31;9.80;99.90
28524;DHT22;15734;50.904;6.922;2023-04-01T20:52:25;9.70;99.90
28524;DHT22;15734;50.904;6.922;2023-04-01T20:57:32;9.80;99.90
28524;DHT22;15734;50.904;6.922;2023-04-01T21:07:53;9.80;99.90
28524;DHT22;15734;50.904;6.922;2023-04-01T21:16:35;9.80;99.90
28524;DHT22;15734;50.904;6.922;2023-04-01T21:18:33;9.70;99.90
28524;DHT22;15734;50.904;6.922;2023-04-01T21:36:48;9.70;99.90
28524;DHT22;15734;50.904;6.922;2023-04-01T21:52:51;9.60;99.90
28524;DHT22;15734;50.904;6.922;2023-04-01T21:58:06;9.60;99.90
28524;DHT22;15734;50.904;6.922;2023-04-01T22:00:38;9.60;99.90
28524;DHT22;15734;50.904;6.922;2023-04-01T22:05:50;9.60;99.90
28524;DHT22;15734;50.904;6.922;2023-04-01T22:13:34;9.60;99.90
28524;DHT22;15734;50.904;6.922;2023-04-01T22:16:13;9.60;99.90
28524;DHT22;15734;50.904;6.922;2023-04-01T22:18:48;9.60;99.90
28524;DHT22;15734;50.904;6.922;2023-04-01T22:29:35;9.70;99.90
28524;DHT22;15734;50.904;6.922;2023-04-01T22:32:16;9.70;99.90
28524;DHT22;15734;50.904;6.922;2023-04-01T22:42:20;9.70;99.90
28524;DHT22;15734;50.904;6.922;2023-04-01T22:44:51;9.70;99.90
28524;DHT22;15734;50.904;6.922;2023-04-01T22:52:34;9.70;99.90
28524;DHT22;15734;50.904;6.922;2023-04-01T22:55:24;9.80;99.90
28524;DHT22;15734;50.904;6.922;2023-04-01T22:57:58;9.80;99.90
28524;DHT22;15734;50.904;6.922;2023-04-01T23:00:30;9.80;99.90
28524;DHT22;15734;50.904;6.922;2023-04-01T23:05:44;9.80;99.90
28524;DHT22;15734;50.904;6.922;2023-04-01T23:10:58;9.90;99.90
28524;DHT22;15734;50.904;6.922;2023-04-01T23:13:30;9.90;99.90
28524;DHT22;15734;50.904;6.922;2023-04-01T23:15:57;9.90;99.90
28524;DHT22;15734;50.904;6.922;2023-04-01T23:26:09;10.10;99.90
28524;DHT22;15734;50.904;6.922;2023-04-01T23:31:00;10.10;99.90
28524;DHT22;15734;50.904;6.922;2023-04-01T23:33:29;10.10;99.90
28524;DHT22;15734;50.904;6.922;2023-04-01T23:38:31;10.10;99.90
28524;DHT22;15734;50.904;6.922;2023-04-01T23:40:57;10.20;99.90
28524;DHT22;15734;50.904;6.922;2023-04-01T23:43:26;10.10;99.90
28524;DHT22;15734;50.904;6.922;2023-04-01T23:45:54;10.20;99.90
28524;DHT22;15734;50.904;6.922;2023-04-01T23:48:21;10.20;99.90
28524;DHT22;15734;50.904;6.922;2023-04-01T23:50:47;10.20;99.90
28524;DHT22;15734;50.904;6.922;2023-04-01T23:53:17;10.20;99.90
28524;DHT22;15734;50.904;6.922;2023-04-01T23:55:44;10.20;99.90
